Time;durP1;ratioP1;P1;durP2;ratioP2;P2;SDS_P1;SDS_P2;PMS_P1;PMS_P2;Temp;Humidity;BMP_temperature;BMP_pressure;BME280_temperature;BME280_humidity;BME280_pressure;Samples;Min_cycle;Max_cycle;Signal;HPM_P1;HPM_P2
2023/12/29 00:00:38;;;;;;;27.50;14.90;;;;;;;-0.28;87.70;96099.09;110513;1274;22222;-76
2023/12/29 00:03:26;;;;;;;29.40;15.90;;;;;;;-0.17;86.66;96097.34;110516;1274;22139;-77
2023/12/29 00:05:55;;;;;;;27.10;15.30;;;;;;;-0.19;86.27;96093.30;110516;1274;22245;-77
2023/12/29 00:08:23;;;;;;;31.00;15.70;;;;;;;-0.11;86.69;96083.51;110652;1274;23024;-77
2023/12/29 00:10:51;;;;;;;22.90;12.60;;;;;;;-0.07;86.24;96082.08;110549;1274;22132;-76
2023/12/29 00:13:22;;;;;;;26.60;16.50;;;;;;;-0.07;86.02;96081.93;110495;1274;22133;-77
2023/12/29 00:15:54;;;;;;;23.80;15.00;;;;;;;-0.01;86.36;96077.60;110043;1274;568037;-76
2023/12/29 00:18:24;;;;;;;23.30;12.40;;;;;;;0.04;86.10;96076.52;110525;1274;22240;-77
2023/12/29 00:20:52;;;;;;;24.20;13.40;;;;;;;-0.01;85.83;96079.31;110551;1274;22123;-76
2023/12/29 00:23:34;;;;;;;27.30;15.20;;;;;;;-0.11;85.93;96074.87;110582;1274;22192;-76
2023/12/29 00:26:02;;;;;;;35.40;18.20;;;;;;;-0.10;86.06;96073.01;110544;1274;22368;-76
2023/12/29 00:28:31;;;;;;;38.10;19.40;;;;;;;-0.12;86.00;96073.46;110529;1274;22617;-76
2023/12/29 00:30:59;;;;;;;33.60;17.90;;;;;;;-0.12;85.76;96068.42;110502;1273;22133;-76
2023/12/29 00:33:31;;;;;;;45.00;19.50;;;;;;;-0.20;85.23;96065.11;110578;1263;22136;-77
2023/12/29 00:36:00;;;;;;;33.00;16.60;;;;;;;-0.28;85.20;96064.85;110512;1274;22133;-76
2023/12/29 00:38:29;;;;;;;26.70;14.40;;;;;;;-0.28;85.70;96066.59;110531;1274;22144;-76
2023/12/29 00:40:57;;;;;;;13.00;8.10;;;;;;;-0.27;85.63;96062.81;110516;1274;22142;-76
2023/12/29 00:43:25;;;;;;;16.80;9.20;;;;;;;-0.27;85.65;96058.33;110626;1274;22732;-76
2023/12/29 00:45:54;;;;;;;18.40;10.40;;;;;;;-0.31;85.73;96060.80;110503;1274;22217;-76
2023/12/29 00:48:22;;;;;;;24.40;14.00;;;;;;;-0.39;86.07;96060.89;110624;1274;22359;-77
2023/12/29 00:50:50;;;;;;;32.30;15.30;;;;;;;-0.46;86.02;96058.61;110614;1274;22300;-76
2023/12/29 00:53:18;;;;;;;28.70;14.30;;;;;;;-0.50;86.01;96053.96;110524;1274;22133;-77
2023/12/29 00:55:46;;;;;;;23.40;12.50;;;;;;;-0.58;86.28;96060.46;110508;1274;23041;-76
2023/12/29 00:58:15;;;;;;;22.10;11.70;;;;;;;-0.67;86.31;96060.88;110594;1274;22858;-76
2023/12/29 01:00:43;;;;;;;23.20;11.90;;;;;;;-0.82;86.34;96061.95;110594;1274;22818;-76
2023/12/29 01:03:11;;;;;;;9.60;5.80;;;;;;;-0.94;86.42;96063.98;110606;1274;22111;-76
2023/12/29 01:05:40;;;;;;;6.40;4.20;;;;;;;-1.00;86.48;96057.39;110578;1274;22126;-76
2023/12/29 01:08:08;;;;;;;6.30;4.30;;;;;;;-1.05;86.56;96054.95;110591;1274;22083;-77
2023/12/29 01:10:36;;;;;;;6.20;3.90;;;;;;;-1.11;86.49;96054.41;110511;1274;22147;-77
2023/12/29 01:13:04;;;;;;;6.80;3.30;;;;;;;-1.18;86.45;96060.73;110580;1274;22785;-76
2023/12/29 01:15:33;;;;;;;6.40;3.90;;;;;;;-1.26;86.95;96065.14;110535;1274;22994;-77
2023/12/29 01:18:01;;;;;;;5.30;3.40;;;;;;;-1.36;86.57;96056.34;110516;1274;22173;-77
2023/12/29 01:20:30;;;;;;;5.80;3.70;;;;;;;-1.43;86.60;96055.23;110517;1274;22264;-76
2023/12/29 01:22:58;;;;;;;5.90;3.60;;;;;;;-1.46;86.54;96053.93;110527;1274;22153;-77
2023/12/29 01:25:27;;;;;;;7.30;4.20;;;;;;;-1.49;86.45;96054.16;110593;1274;22104;-77
2023/12/29 01:27:55;;;;;;;4.60;2.90;;;;;;;-1.50;86.79;96062.41;110533;1274;22206;-77
2023/12/29 01:30:23;;;;;;;5.60;3.20;;;;;;;-1.53;86.66;96063.88;110543;1274;22131;-77
2023/12/29 01:32:51;;;;;;;4.70;2.90;;;;;;;-1.52;86.94;96056.48;110508;1274;22109;-77
2023/12/29 01:35:20;;;;;;;5.90;3.40;;;;;;;-1.49;87.10;96059.17;110530;1274;22128;-77
2023/12/29 01:37:48;;;;;;;6.60;3.60;;;;;;;-1.46;87.41;96062.03;110557;1274;22964;-77
2023/12/29 01:40:17;;;;;;;7.70;3.40;;;;;;;-1.46;87.13;96056.52;110511;1274;22137;-77
2023/12/29 01:42:45;;;;;;;6.60;3.20;;;;;;;-1.47;87.06;96055.59;110533;1274;22165;-77
2023/12/29 01:45:23;;;;;;;10.40;4.40;;;;;;;-1.44;87.49;96048.13;110506;1274;22324;-77
2023/12/29 01:47:52;;;;;;;5.30;2.90;;;;;;;-1.36;87.80;96045.83;110620;1274;22270;-77
2023/12/29 01:50:22;;;;;;;6.70;3.60;;;;;;;-1.30;87.84;96044.98;110567;1275;22906;-77
2023/12/29 01:52:52;;;;;;;5.90;3.50;;;;;;;-1.26;87.54;96046.48;110620;1274;22351;-77
2023/12/29 01:55:21;;;;;;;5.60;3.40;;;;;;;-1.20;87.92;96041.88;110579;1274;22283;-77
2023/12/29 01:57:51;;;;;;;7.40;3.30;;;;;;;-1.14;88.03;96042.58;110539;1274;22982;-77
2023/12/29 02:00:20;;;;;;;5.30;3.20;;;;;;;-1.16;87.33;96040.30;110596;1274;22190;-77
2023/12/29 02:02:49;;;;;;;7.80;3.50;;;;;;;-1.13;87.71;96037.63;110562;1274;22826;-77
2023/12/29 02:05:21;;;;;;;5.60;2.70;;;;;;;-1.06;88.00;96033.52;110594;1274;22129;-77
2023/12/29 02:07:51;;;;;;;6.50;3.40;;;;;;;-1.03;87.67;96030.52;110514;1274;22982;-77
2023/12/29 02:10:20;;;;;;;4.70;2.90;;;;;;;-1.03;86.60;96032.93;110564;1274;22173;-77
2023/12/29 02:12:54;;;;;;;3.90;2.60;;;;;;;-1.18;85.77;96033.14;110528;1274;22150;-77
2023/12/29 02:15:23;;;;;;;5.30;2.70;;;;;;;-1.22;86.31;96041.10;110608;1274;22128;-77
2023/12/29 02:18:02;;;;;;;5.70;3.20;;;;;;;-1.22;86.77;96037.13;110606;1274;22128;-77
2023/12/29 02:20:31;;;;;;;5.50;3.20;;;;;;;-1.20;86.93;96035.46;110633;1274;22140;-77
2023/12/29 02:23:00;;;;;;;5.00;2.80;;;;;;;-1.22;86.57;96034.70;110544;1274;23152;-77
2023/12/29 02:25:29;;;;;;;5.70;3.80;;;;;;;-1.27;86.45;96036.81;110571;1274;22916;-77
2023/12/29 02:28:06;;;;;;;5.90;3.10;;;;;;;-1.36;85.87;96041.67;110553;1274;22212;-77
2023/12/29 02:30:43;;;;;;;4.30;2.70;;;;;;;-1.50;85.68;96036.86;110552;1274;22366;-77
2023/12/29 02:33:18;;;;;;;11.90;5.90;;;;;;;-1.61;85.78;96040.11;110525;1274;22161;-77
2023/12/29 02:35:50;;;;;;;7.70;4.60;;;;;;;-1.78;86.01;96038.16;110538;1274;22167;-77
2023/12/29 02:38:20;;;;;;;4.30;3.10;;;;;;;-1.84;86.24;96035.33;110618;1263;22740;-77
2023/12/29 02:40:48;;;;;;;5.60;3.10;;;;;;;-1.85;86.48;96035.29;110530;1274;22842;-77
2023/12/29 02:43:16;;;;;;;7.10;3.70;;;;;;;-1.87;86.35;96033.16;110521;1274;22267;-77
2023/12/29 02:45:45;;;;;;;5.00;3.20;;;;;;;-1.92;86.35;96027.63;110533;1274;22354;-77
2023/12/29 02:48:13;;;;;;;5.80;3.00;;;;;;;-2.01;86.06;96026.80;110564;1274;23035;-77
2023/12/29 02:50:42;;;;;;;7.70;3.20;;;;;;;-2.03;86.28;96022.56;110557;1274;22436;-77
2023/12/29 02:53:11;;;;;;;4.90;3.00;;;;;;;-2.06;86.24;96020.55;110576;1274;22150;-77
2023/12/29 02:55:39;;;;;;;6.10;3.40;;;;;;;-2.09;86.31;96018.73;110528;1275;22943;-77
2023/12/29 02:58:09;;;;;;;6.40;3.60;;;;;;;-2.13;86.27;96016.88;110524;1274;22239;-77
2023/12/29 03:00:37;;;;;;;6.50;3.60;;;;;;;-2.17;86.35;96023.28;110614;1274;22221;-77
2023/12/29 03:03:05;;;;;;;5.40;3.20;;;;;;;-2.23;86.23;96018.23;110582;1274;22801;-77
2023/12/29 03:05:33;;;;;;;4.40;3.10;;;;;;;-2.28;86.15;96019.79;110550;1274;22209;-77
2023/12/29 03:08:02;;;;;;;6.20;2.90;;;;;;;-2.31;86.20;96020.35;110592;1274;22895;-77
2023/12/29 03:10:31;;;;;;;8.00;4.20;;;;;;;-2.33;86.24;96021.44;110543;1274;22131;-77
2023/12/29 03:13:00;;;;;;;10.30;4.10;;;;;;;-2.36;86.32;96020.48;110613;1274;22125;-77
2023/12/29 03:15:28;;;;;;;6.80;3.90;;;;;;;-2.37;86.44;96023.20;110559;1274;22109;-77
2023/12/29 03:17:57;;;;;;;5.40;3.20;;;;;;;-2.39;86.48;96019.87;110667;1274;22604;-77
2023/12/29 03:20:25;;;;;;;5.30;3.70;;;;;;;-2.43;86.31;96020.79;110542;1274;22854;-77
2023/12/29 03:22:55;;;;;;;5.90;3.30;;;;;;;-2.45;86.43;96023.95;110587;1274;22291;-77
2023/12/29 03:25:23;;;;;;;6.20;3.70;;;;;;;-2.47;86.50;96021.64;110606;1268;22130;-77
2023/12/29 03:27:51;;;;;;;7.00;3.90;;;;;;;-2.50;86.68;96022.39;110613;1274;22207;-77
2023/12/29 03:30:19;;;;;;;8.60;3.90;;;;;;;-2.54;86.80;96029.80;110552;1274;22113;-77
2023/12/29 03:32:48;;;;;;;6.80;3.40;;;;;;;-2.58;86.73;96022.60;110528;1274;22209;-77
2023/12/29 03:35:16;;;;;;;3.50;2.60;;;;;;;-2.59;86.61;96017.20;110542;1274;22872;-77
2023/12/29 03:37:45;;;;;;;6.00;3.70;;;;;;;-2.58;87.03;96012.25;110570;1274;22264;-77
2023/12/29 03:40:14;;;;;;;5.10;3.10;;;;;;;-2.61;87.14;96018.35;110553;1274;22998;-77
2023/12/29 03:42:42;;;;;;;4.90;3.10;;;;;;;-2.64;86.90;96019.63;110550;1274;22175;-77
2023/12/29 03:45:11;;;;;;;5.30;2.90;;;;;;;-2.65;86.99;96022.99;110549;1274;22844;-77
2023/12/29 03:47:39;;;;;;;5.80;3.30;;;;;;;-2.67;87.13;96017.62;110574;1274;22334;-77
2023/12/29 03:50:08;;;;;;;8.90;3.70;;;;;;;-2.66;87.46;96015.05;110544;1274;22288;-77
2023/12/29 03:52:36;;;;;;;9.30;4.70;;;;;;;-2.64;87.36;96011.85;110563;1274;22180;-77
2023/12/29 03:55:05;;;;;;;9.80;4.10;;;;;;;-2.61;86.99;96016.63;110590;1274;22125;-77
2023/12/29 03:57:33;;;;;;;10.80;4.00;;;;;;;-2.59;87.06;96017.03;110564;1274;22185;-77
2023/12/29 04:00:01;;;;;;;7.10;4.30;;;;;;;-2.59;86.97;96018.60;110539;1274;22128;-77
2023/12/29 04:02:39;;;;;;;12.20;6.10;;;;;;;-2.64;86.83;96020.81;110569;1274;22272;-77
2023/12/29 04:05:09;;;;;;;8.90;4.70;;;;;;;-2.64;87.19;96020.98;110576;1274;22187;-77
2023/12/29 04:07:40;;;;;;;8.90;3.80;;;;;;;-2.58;87.48;96015.53;110629;1264;22169;-78
2023/12/29 04:10:08;;;;;;;6.50;3.70;;;;;;;-2.50;87.73;96014.13;110583;1274;22172;-77
2023/12/29 04:12:37;;;;;;;6.60;3.40;;;;;;;-2.40;87.90;96008.11;110608;1274;22861;-77
2023/12/29 04:15:06;;;;;;;5.60;3.60;;;;;;;-2.39;87.66;96013.50;110611;1274;22600;-77
2023/12/29 04:17:34;;;;;;;5.20;3.50;;;;;;;-2.34;87.78;96014.52;110577;1274;22128;-77
2023/12/29 04:20:04;;;;;;;6.10;3.70;;;;;;;-2.27;88.18;96011.88;110371;1274;22124;-77
2023/12/29 04:22:33;;;;;;;6.40;3.30;;;;;;;-2.17;88.44;96012.77;110567;1274;22119;-77
2023/12/29 04:25:02;;;;;;;5.10;3.40;;;;;;;-2.10;88.35;96010.09;110579;1274;22136;-77
2023/12/29 04:27:30;;;;;;;24.70;11.70;;;;;;;-2.08;87.79;96009.10;110625;1274;22865;-77
2023/12/29 04:29:59;;;;;;;47.40;20.40;;;;;;;-2.08;87.83;96007.73;110588;1274;22369;-77
2023/12/29 04:32:27;;;;;;;19.60;9.40;;;;;;;-2.02;88.05;96003.85;110578;1274;22147;-77
2023/12/29 04:34:55;;;;;;;17.60;8.40;;;;;;;-1.94;87.78;96004.64;110567;1274;22280;-77
2023/12/29 04:37:23;;;;;;;14.40;7.50;;;;;;;-1.92;87.05;96011.25;110625;1274;22179;-77
2023/12/29 04:39:51;;;;;;;11.40;6.60;;;;;;;-1.88;87.10;96010.89;110639;1274;22122;-77
2023/12/29 04:42:20;;;;;;;4.50;3.30;;;;;;;-1.85;86.97;96010.63;110574;1274;22277;-77
2023/12/29 04:44:48;;;;;;;4.50;3.20;;;;;;;-1.84;87.15;96010.48;110564;1274;22165;-77
2023/12/29 04:47:16;;;;;;;6.50;3.20;;;;;;;-1.85;87.09;96011.86;110557;1274;22225;-77
2023/12/29 04:49:45;;;;;;;6.70;3.50;;;;;;;-1.80;87.29;96008.76;110628;1274;22128;-77
2023/12/29 04:52:13;;;;;;;7.40;3.90;;;;;;;-1.70;87.62;96004.27;110586;1274;22131;-77
2023/12/29 04:54:41;;;;;;;7.00;3.50;;;;;;;-1.70;86.95;96005.14;110633;1274;22904;-78
2023/12/29 04:57:10;;;;;;;8.80;4.20;;;;;;;-1.72;87.24;96005.57;110618;1274;22080;-77
2023/12/29 04:59:39;;;;;;;4.30;3.00;;;;;;;-1.72;87.07;96007.11;110603;1274;22123;-77
2023/12/29 05:02:07;;;;;;;6.30;3.90;;;;;;;-1.86;86.52;95999.39;110625;1274;23157;-77
2023/12/29 05:04:35;;;;;;;8.20;3.70;;;;;;;-1.95;86.42;96005.46;110579;1275;22120;-77
2023/12/29 05:07:05;;;;;;;5.90;3.20;;;;;;;-1.98;86.74;95996.72;110615;1274;22130;-78
2023/12/29 05:09:33;;;;;;;6.10;3.80;;;;;;;-2.03;86.58;95998.60;110602;1274;22116;-77
2023/12/29 05:12:02;;;;;;;5.80;3.50;;;;;;;-2.03;86.88;96001.39;110635;1274;22189;-77
2023/12/29 05:14:30;;;;;;;6.40;3.60;;;;;;;-2.04;86.91;96008.26;110613;1274;22369;-77
2023/12/29 05:16:58;;;;;;;7.30;4.10;;;;;;;-2.09;87.05;96008.73;110590;1274;22903;-78
2023/12/29 05:19:26;;;;;;;6.60;4.00;;;;;;;-2.13;86.85;96005.30;110632;1274;22978;-77
2023/12/29 05:21:55;;;;;;;6.20;3.20;;;;;;;-2.17;86.72;96003.11;110597;1274;22780;-77
2023/12/29 05:24:23;;;;;;;5.40;3.40;;;;;;;-2.16;87.08;96008.14;110634;1274;22116;-77
2023/12/29 05:26:51;;;;;;;5.40;3.60;;;;;;;-2.15;87.21;96010.91;110619;1269;22132;-77
2023/12/29 05:29:19;;;;;;;6.60;4.10;;;;;;;-2.18;87.04;96007.40;110615;1274;22311;-78
2023/12/29 05:31:47;;;;;;;7.80;4.20;;;;;;;-2.19;87.22;96010.79;110536;1274;23031;-77
2023/12/29 05:34:16;;;;;;;6.50;3.50;;;;;;;-2.20;87.17;96011.63;110568;1274;22111;-77
2023/12/29 05:36:45;;;;;;;5.10;3.50;;;;;;;-2.20;87.18;96015.60;110615;1274;23308;-77
2023/12/29 05:39:15;;;;;;;14.80;7.00;;;;;;;-2.20;87.14;96014.38;110592;1274;22147;-77
2023/12/29 05:41:44;;;;;;;21.10;10.30;;;;;;;-2.24;87.20;96017.14;110545;1274;22265;-77
2023/12/29 05:44:12;;;;;;;46.50;20.80;;;;;;;-2.36;87.28;96012.55;110547;1274;22335;-78
2023/12/29 05:46:40;;;;;;;66.30;28.10;;;;;;;-2.46;87.28;96014.61;110627;1274;22632;-77
2023/12/29 05:49:08;;;;;;;32.20;14.50;;;;;;;-2.50;87.32;96018.95;110518;1274;22106;-77
2023/12/29 05:51:37;;;;;;;6.80;4.00;;;;;;;-2.51;87.51;96015.98;110590;1274;22125;-77
2023/12/29 05:54:05;;;;;;;4.60;3.30;;;;;;;-2.50;87.52;96016.20;110604;1275;22987;-77
2023/12/29 05:56:33;;;;;;;13.20;7.10;;;;;;;-2.52;88.17;96018.17;110541;1274;22145;-78
2023/12/29 05:59:01;;;;;;;11.40;5.80;;;;;;;-2.59;87.77;96010.32;110548;1274;22305;-77
2023/12/29 06:01:30;;;;;;;9.70;5.70;;;;;;;-2.63;87.67;96009.66;110591;1274;22142;-77
2023/12/29 06:03:59;;;;;;;14.50;6.20;;;;;;;-2.64;87.92;96015.30;110564;1274;22350;-77
2023/12/29 06:06:28;;;;;;;12.50;6.70;;;;;;;-2.67;88.05;96023.27;110511;1274;23054;-77
2023/12/29 06:08:56;;;;;;;8.80;4.80;;;;;;;-2.72;87.82;96023.59;110583;1275;22189;-77
2023/12/29 06:11:24;;;;;;;8.60;4.00;;;;;;;-2.70;88.11;96026.93;110549;1274;22202;-77
2023/12/29 06:13:52;;;;;;;5.60;4.20;;;;;;;-2.67;88.05;96023.11;110553;1274;22128;-77
2023/12/29 06:16:20;;;;;;;6.80;3.90;;;;;;;-2.65;88.02;96024.73;110549;1274;22154;-77
2023/12/29 06:18:49;;;;;;;19.80;10.10;;;;;;;-2.62;87.98;96029.68;110617;1274;22122;-77
2023/12/29 06:21:17;;;;;;;25.70;13.60;;;;;;;-2.62;87.84;96028.64;110548;1274;22936;-78
2023/12/29 06:23:46;;;;;;;10.80;6.30;;;;;;;-2.62;87.85;96028.82;110521;1274;22106;-77
2023/12/29 06:26:16;;;;;;;15.40;8.70;;;;;;;-2.59;87.72;96027.70;110555;1274;22212;-77
2023/12/29 06:28:47;;;;;;;18.40;9.70;;;;;;;-2.58;87.72;96030.14;110514;1259;22315;-77
2023/12/29 06:31:17;;;;;;;18.20;9.80;;;;;;;-2.59;87.68;96031.00;110567;1274;22124;-77
2023/12/29 06:33:45;;;;;;;15.60;9.40;;;;;;;-2.58;87.95;96034.48;110611;1274;22185;-78
2023/12/29 06:36:14;;;;;;;14.40;8.00;;;;;;;-2.58;87.79;96031.53;110557;1274;22129;-77
2023/12/29 06:38:48;;;;;;;77.80;31.80;;;;;;;-2.56;87.75;96034.87;110535;1274;22295;-77
2023/12/29 06:41:16;;;;;;;9.20;5.90;;;;;;;-2.52;87.84;96035.22;110549;1263;22356;-77
2023/12/29 06:43:45;;;;;;;87.40;42.30;;;;;;;-2.49;87.98;96032.60;110599;1274;22291;-77
2023/12/29 06:46:14;;;;;;;104.40;43.30;;;;;;;-2.47;87.94;96030.41;110503;1274;22128;-77
2023/12/29 06:48:42;;;;;;;36.90;13.80;;;;;;;-2.42;88.16;96029.41;110516;1274;22188;-77
2023/12/29 06:51:17;;;;;;;38.10;19.40;;;;;;;-2.34;88.42;96031.93;110561;1274;22993;-77
2023/12/29 06:53:49;;;;;;;37.70;17.30;;;;;;;-2.25;88.57;96030.92;110602;1274;22880;-78
2023/12/29 06:56:17;;;;;;;21.00;9.30;;;;;;;-2.12;88.81;96036.90;110568;1274;22172;-78
2023/12/29 06:58:46;;;;;;;43.50;20.60;;;;;;;-2.05;88.55;96033.34;110519;1274;22297;-77
2023/12/29 07:01:15;;;;;;;51.70;24.10;;;;;;;-2.05;88.19;96029.58;110297;1274;22854;-78
2023/12/29 07:03:44;;;;;;;7.50;4.60;;;;;;;-2.00;88.13;96028.03;110521;1274;22138;-77
2023/12/29 07:06:13;;;;;;;6.10;4.10;;;;;;;-1.90;88.65;96026.67;110490;1274;22123;-78
2023/12/29 07:08:41;;;;;;;40.80;21.60;;;;;;;-1.83;88.33;96022.77;110546;1274;22132;-77
2023/12/29 07:11:11;;;;;;;74.30;35.60;;;;;;;-1.75;88.19;96021.70;110520;1274;22358;-77
2023/12/29 07:13:39;;;;;;;27.20;14.40;;;;;;;-1.65;88.14;96022.54;110520;1274;22140;-78
2023/12/29 07:16:08;;;;;;;81.60;40.20;;;;;;;-1.49;88.67;96020.67;110530;1274;22171;-77
2023/12/29 07:18:36;;;;;;;72.80;38.40;;;;;;;-1.40;87.83;96007.37;110524;1274;22113;-77
2023/12/29 07:21:05;;;;;;;64.90;34.00;;;;;;;-1.41;87.21;96008.73;110513;1274;22126;-77
2023/12/29 07:23:33;;;;;;;65.80;36.20;;;;;;;-1.36;87.31;96011.64;110533;1274;22742;-77
2023/12/29 07:26:01;;;;;;;67.40;36.60;;;;;;;-1.29;87.20;96014.13;110586;1274;22124;-78
2023/12/29 07:28:29;;;;;;;81.40;44.70;;;;;;;-1.19;87.71;96017.76;110513;1274;22140;-77
2023/12/29 07:30:58;;;;;;;105.70;56.10;;;;;;;-1.08;87.87;96020.88;110502;1274;22118;-77
2023/12/29 07:33:26;;;;;;;69.50;37.20;;;;;;;-0.97;87.68;96020.34;110597;1274;22226;-77
2023/12/29 07:35:54;;;;;;;29.50;17.10;;;;;;;-0.94;87.46;96020.64;110489;1274;22259;-77
2023/12/29 07:38:24;;;;;;;24.10;13.70;;;;;;;-0.95;86.83;96029.55;110528;1274;22259;-77
2023/12/29 07:40:52;;;;;;;42.40;22.90;;;;;;;-0.93;87.14;96032.55;110537;1274;22126;-77
2023/12/29 07:43:20;;;;;;;57.60;29.60;;;;;;;-0.90;87.49;96032.66;110512;1274;22110;-77
2023/12/29 07:45:48;;;;;;;48.30;23.40;;;;;;;-0.94;87.79;96033.08;110478;1274;22418;-77
2023/12/29 07:48:17;;;;;;;46.00;25.00;;;;;;;-0.96;87.88;96029.02;110471;1274;22153;-76
2023/12/29 07:50:45;;;;;;;47.70;22.80;;;;;;;-0.92;88.17;96023.79;110626;1274;22123;-77
2023/12/29 07:53:14;;;;;;;65.30;33.10;;;;;;;-0.88;87.71;96014.95;110559;1274;22145;-77
2023/12/29 07:55:43;;;;;;;38.70;19.50;;;;;;;-0.80;87.99;96020.02;110615;1274;22170;-77
2023/12/29 07:58:11;;;;;;;45.90;23.30;;;;;;;-0.74;87.74;96013.15;110491;1274;22142;-77
2023/12/29 08:00:39;;;;;;;50.00;25.50;;;;;;;-0.68;87.82;96013.14;110597;1274;22191;-77
2023/12/29 08:03:07;;;;;;;48.40;25.60;;;;;;;-0.61;88.02;96019.77;110537;1274;22134;-77
2023/12/29 08:05:36;;;;;;;42.70;24.60;;;;;;;-0.54;88.19;96023.08;110496;1274;22895;-77
2023/12/29 08:08:04;;;;;;;55.30;29.30;;;;;;;-0.48;88.11;96027.60;110492;1274;23107;-77
2023/12/29 08:10:33;;;;;;;41.60;22.80;;;;;;;-0.40;88.12;96035.27;110509;1274;22153;-77
2023/12/29 08:13:01;;;;;;;43.70;25.00;;;;;;;-0.41;87.83;96032.82;110514;1274;22336;-77
2023/12/29 08:15:29;;;;;;;39.60;21.40;;;;;;;-0.40;87.62;96029.22;110565;1274;22913;-76
2023/12/29 08:17:57;;;;;;;35.50;18.50;;;;;;;-0.36;87.39;96023.98;110476;1274;22290;-77
2023/12/29 08:20:26;;;;;;;34.90;18.50;;;;;;;-0.35;87.37;96020.23;110520;1274;22156;-76
2023/12/29 08:22:54;;;;;;;31.70;17.70;;;;;;;-0.34;87.51;96024.21;110566;1274;22139;-76
2023/12/29 08:25:22;;;;;;;42.70;20.90;;;;;;;-0.35;87.21;96026.25;110472;1274;22122;-76
2023/12/29 08:27:51;;;;;;;31.70;19.30;;;;;;;-0.37;87.52;96019.80;110530;1274;22305;-76
2023/12/29 08:30:19;;;;;;;40.10;23.60;;;;;;;-0.32;87.87;96018.39;110614;1274;22125;-77
2023/12/29 08:32:47;;;;;;;40.50;22.00;;;;;;;-0.20;88.50;96010.45;110523;1273;22132;-76
2023/12/29 08:35:15;;;;;;;41.60;22.50;;;;;;;-0.06;88.54;96013.46;110603;1263;22103;-76
2023/12/29 08:37:43;;;;;;;36.60;21.60;;;;;;;0.16;89.25;96011.48;110501;1274;22981;-76
2023/12/29 08:40:12;;;;;;;39.10;23.50;;;;;;;0.37;89.40;96010.17;110604;1274;22226;-76
2023/12/29 08:42:40;;;;;;;37.40;19.40;;;;;;;0.62;89.55;96005.45;110488;1274;22129;-76
2023/12/29 08:45:09;;;;;;;39.40;21.20;;;;;;;0.77;88.75;96001.01;110573;1274;22115;-76
2023/12/29 08:47:37;;;;;;;33.30;19.20;;;;;;;0.90;88.76;95999.60;110481;1274;22256;-76
2023/12/29 08:50:06;;;;;;;29.40;16.40;;;;;;;1.08;88.67;96002.66;110638;1274;22141;-76
2023/12/29 08:52:34;;;;;;;32.50;18.20;;;;;;;1.28;88.73;96006.25;110486;1274;23010;-76
2023/12/29 08:55:03;;;;;;;36.30;19.10;;;;;;;1.51;88.87;96006.44;110627;1274;22123;-76
2023/12/29 08:57:32;;;;;;;31.40;18.00;;;;;;;1.60;86.99;96006.64;110505;1274;22310;-76
2023/12/29 09:00:00;;;;;;;37.60;19.80;;;;;;;1.49;86.14;96007.43;110553;1274;22118;-76
2023/12/29 09:02:28;;;;;;;40.40;22.10;;;;;;;1.52;86.62;96006.81;110490;1274;22391;-76
2023/12/29 09:04:56;;;;;;;47.20;24.10;;;;;;;1.51;86.10;96011.63;110500;1274;22226;-76
2023/12/29 09:07:24;;;;;;;45.10;25.50;;;;;;;1.58;86.88;96014.57;110614;1274;22290;-76
2023/12/29 09:09:53;;;;;;;38.90;23.30;;;;;;;1.66;86.80;96015.45;110477;1274;22230;-76
2023/12/29 09:12:21;;;;;;;35.60;22.80;;;;;;;1.78;87.11;96017.45;110529;1274;22117;-76
2023/12/29 09:14:49;;;;;;;37.70;21.80;;;;;;;1.98;87.51;96018.91;110518;1274;22144;-76
2023/12/29 09:17:17;;;;;;;36.20;21.90;;;;;;;2.11;86.93;96016.77;110634;1274;23009;-76
2023/12/29 09:19:46;;;;;;;38.00;22.70;;;;;;;2.18;86.54;96010.64;110498;1263;22356;-76
2023/12/29 09:22:24;;;;;;;35.30;21.20;;;;;;;2.15;85.93;96000.52;110641;1274;22193;-76
2023/12/29 09:24:54;;;;;;;36.40;22.00;;;;;;;2.16;86.33;96003.67;110591;1274;22100;-75
2023/12/29 09:27:22;;;;;;;37.90;20.80;;;;;;;2.23;86.43;96002.24;110498;1274;22157;-75
2023/12/29 09:29:50;;;;;;;33.90;21.00;;;;;;;2.22;85.89;96000.83;110592;1274;22882;-75
2023/12/29 09:32:19;;;;;;;38.20;25.00;;;;;;;2.20;86.03;95998.36;110494;1274;22261;-76
2023/12/29 09:34:47;;;;;;;40.70;26.30;;;;;;;2.22;85.89;95989.91;110583;1274;23104;-75
2023/12/29 09:37:15;;;;;;;43.70;28.10;;;;;;;2.20;85.86;95989.36;110483;1274;22860;-76
2023/12/29 09:39:43;;;;;;;39.30;25.60;;;;;;;2.20;85.85;95978.06;110541;1265;22158;-76
2023/12/29 09:42:21;;;;;;;38.30;24.30;;;;;;;2.15;85.41;95972.92;110494;1274;22098;-75
2023/12/29 09:44:51;;;;;;;34.30;21.00;;;;;;;2.16;85.97;95973.46;110521;1275;22247;-76
2023/12/29 09:47:24;;;;;;;32.60;20.80;;;;;;;2.20;86.11;95973.20;110520;1274;22099;-76
2023/12/29 09:49:53;;;;;;;27.20;18.00;;;;;;;2.27;86.13;95969.69;110536;1274;22229;-76
2023/12/29 09:52:22;;;;;;;30.60;19.80;;;;;;;2.10;85.53;95978.73;110574;1275;22124;-75
2023/12/29 09:54:52;;;;;;;34.10;23.50;;;;;;;2.03;86.12;95979.47;110577;1274;22125;-76
2023/12/29 09:57:21;;;;;;;36.40;23.90;;;;;;;2.27;86.57;95976.80;110526;1274;22179;-76
2023/12/29 09:59:52;;;;;;;34.70;23.50;;;;;;;2.73;86.83;95969.34;110545;1274;22154;-76
2023/12/29 10:02:23;;;;;;;37.90;24.60;;;;;;;3.35;86.83;95966.52;110615;1275;22323;-76
2023/12/29 10:04:52;;;;;;;32.60;19.90;;;;;;;4.06;87.33;95964.17;110597;1274;23089;-76
2023/12/29 10:07:25;;;;;;;30.00;21.00;;;;;;;4.56;83.99;95960.08;110511;1274;22274;-76
2023/12/29 10:09:58;;;;;;;28.30;19.20;;;;;;;5.18;82.78;95956.63;110485;1274;22190;-76
2023/12/29 10:12:32;;;;;;;25.70;17.40;;;;;;;5.78;82.51;95952.69;110455;1275;22125;-76
2023/12/29 10:15:12;;;;;;;24.30;16.30;;;;;;;6.40;83.96;95936.73;110512;1274;22204;-76
2023/12/29 10:17:43;;;;;;;20.10;15.70;;;;;;;7.11;82.46;95934.77;110473;1274;22831;-75
2023/12/29 10:20:30;;;;;;;19.00;15.00;;;;;;;7.58;80.58;95933.33;110488;1274;22337;-76
2023/12/29 10:23:16;;;;;;;19.20;12.40;;;;;;;8.07;78.45;95933.56;110588;1274;22839;-76
2023/12/29 10:25:46;;;;;;;15.70;11.10;;;;;;;8.62;76.24;95929.48;110553;1274;22135;-76
2023/12/29 10:28:17;;;;;;;12.60;9.40;;;;;;;8.90;72.65;95927.75;110530;1274;22362;-76
2023/12/29 10:30:45;;;;;;;12.70;9.60;;;;;;;9.06;71.68;95923.77;110598;1274;22192;-76
2023/12/29 10:33:21;;;;;;;18.40;10.80;;;;;;;9.33;72.06;95924.43;110540;1267;22742;-76
2023/12/29 10:36:06;;;;;;;13.10;9.50;;;;;;;9.83;74.78;95919.91;110581;1274;22170;-76
2023/12/29 10:38:41;;;;;;;11.50;8.90;;;;;;;10.29;69.71;95912.39;110613;1274;22194;-76
2023/12/29 10:41:18;;;;;;;13.40;10.00;;;;;;;10.30;67.81;95907.11;110652;1274;22240;-76
2023/12/29 10:43:52;;;;;;;22.60;12.30;;;;;;;10.53;69.50;95905.59;110621;1274;22144;-76
2023/12/29 10:46:20;;;;;;;15.90;11.40;;;;;;;10.83;67.28;95903.41;110486;1274;22106;-76
2023/12/29 10:48:49;;;;;;;15.70;11.70;;;;;;;11.07;65.68;95898.12;110504;1274;22883;-76
2023/12/29 10:51:27;;;;;;;14.50;10.90;;;;;;;11.46;66.57;95893.08;110540;1260;22169;-76
2023/12/29 10:53:56;;;;;;;15.20;11.20;;;;;;;11.76;65.75;95895.70;110456;1274;22152;-76
2023/12/29 10:56:26;;;;;;;13.20;10.40;;;;;;;11.95;61.64;95895.04;110584;1274;22279;-76
2023/12/29 10:59:04;;;;;;;11.60;9.10;;;;;;;12.18;63.05;95886.83;110585;1274;22134;-76
2023/12/29 11:01:35;;;;;;;10.20;7.90;;;;;;;12.21;58.28;95886.77;110515;1258;22931;-76
2023/12/29 11:04:09;;;;;;;16.00;12.10;;;;;;;12.29;59.12;95888.36;110453;1274;22145;-76
2023/12/29 11:06:46;;;;;;;26.80;19.90;;;;;;;12.54;58.98;95881.65;110620;1275;22332;-76
2023/12/29 11:09:27;;;;;;;14.80;10.80;;;;;;;12.75;58.16;95877.50;110472;1274;22150;-76
2023/12/29 11:11:59;;;;;;;18.80;14.40;;;;;;;12.99;58.18;95873.23;110504;1274;22119;-76
2023/12/29 11:14:30;;;;;;;11.70;9.40;;;;;;;13.12;55.92;95868.35;110630;1274;22209;-76
2023/12/29 11:17:00;;;;;;;16.80;13.30;;;;;;;13.14;56.97;95862.11;110519;1274;22998;-76
2023/12/29 11:19:28;;;;;;;12.00;9.30;;;;;;;13.37;56.17;95853.26;110616;1274;22128;-76
2023/12/29 11:21:57;;;;;;;11.40;9.70;;;;;;;13.41;55.92;95848.20;110585;1274;22942;-76
2023/12/29 11:24:26;;;;;;;9.30;7.30;;;;;;;13.48;53.08;95841.33;110431;1274;22302;-76
2023/12/29 11:27:07;;;;;;;11.80;8.20;;;;;;;13.78;51.68;95840.16;110553;1274;22212;-76